Flight Track Log - Related Links

Times and Time Zones

All times are in EDT time to prevent confusion due to time zone crossing. See the RPA3143 flight status page for this flight to view local times or setup timezone preferences in your user account.

Time Position Orientation Groundspeed Altitude Reporting Facility
EDT Latitude Longitude Course Direction KTS MPH feet Rate Location/Type
Sun 08:12:50 AM 38.8833 -77.0500 230° Southwest 173 199 1,500  Level Potomac TRACON
Sun 08:13:50 AM 38.9333 -77.1000 322° Northwest 236 272 3,500 2,316 Climbing Potomac TRACON
Sun 08:14:44 AM 38.9833 -77.1667 314° West 283 326 5,900 2,700 Climbing Potomac TRACON
Sun 08:15:00 AM 38.5440 -77.3727 218° Southwest  Level FlightAware Approximate
Sun 08:15:50 AM 39.0000 -77.2667 282° West 289 333 8,900  Level Potomac TRACON
Sun 08:16:00 AM 38.4701 -77.4648 225° Southwest  Level FlightAware Approximate
Sun 08:16:50 AM 38.9333 -77.3167 210° Southwest 280 322 9,800  Level Potomac TRACON
Sun 08:17:00 AM 38.3909 -77.5462 201° Southwest  Level FlightAware Approximate
Sun 08:17:50 AM 38.8667 -77.3500 201° Southwest 289 333 11,200  Level Potomac TRACON
Sun 08:18:00 AM 38.3249 -77.6460 230° Southwest  Level FlightAware Approximate
Sun 08:18:50 AM 38.7833 -77.3833 197° South 312 359 13,100  Level Potomac TRACON
Sun 08:20:43 AM 38.6278 -77.4600 201° Southwest 333 383 16,800 1,817 Climbing Washington Center
Sun 08:21:45 AM 38.5292 -77.5078 201° Southwest 345 397 18,400 1,750 Climbing Washington Center
Sun 08:22:43 AM 38.4325 -77.5503 199° South 358 412 20,300 1,815 Climbing Washington Center
Sun 08:23:44 AM 38.3497 -77.6331 218° Southwest 364 419 22,000 1,574 Climbing Washington Center
Sun 08:24:45 AM 38.2811 -77.7422 231° Southwest 370 426 23,500 1,438 Climbing Washington Center
Sun 08:25:45 AM 38.2103 -77.8511 230° Southwest 394 453 24,900 1,373 Climbing Washington Center
Sun 08:26:43 AM 38.1372 -77.9650 231° Southwest 410 472 26,200 1,250 Climbing Washington Center
Sun 08:27:45 AM 38.0642 -78.0789 231° Southwest 421 484 27,400 1,200 Climbing Washington Center
Sun 08:28:43 AM 37.9825 -78.1842 225° Southwest 421 484 28,600 1,373 Climbing Washington Center
Sun 08:29:43 AM 37.9014 -78.2681 219° Southwest 415 478 30,100 1,140 Climbing Washington Center
Sun 08:30:44 AM 37.8056 -78.3569 216° Southwest 420 483 30,900 1,091 Climbing Washington Center
Sun 08:31:44 AM 37.7011 -78.4528 216° Southwest 432 497 32,300 1,240 Climbing Washington Center
Sun 08:32:45 AM 37.6072 -78.5408 217° Southwest 432 497 33,400 843 Climbing Washington Center
Sun 08:33:45 AM 37.5133 -78.6289 217° Southwest 432 497 34,000 305 Climbing Washington Center
Sun 08:34:43 AM 37.4192 -78.7194 217° Southwest 432 497 34,000  Level Washington Center
Sun 08:35:44 AM 37.3211 -78.8042 215° Southwest 432 497 34,000  Level Washington Center
Sun 08:36:44 AM 37.2331 -78.8892 218° Southwest 432 497 34,000  Level Washington Center
Sun 08:37:45 AM 37.1367 -78.9789 217° Southwest 437 503 34,000  Level Washington Center
Sun 08:38:43 AM 37.0383 -79.0681 216° Southwest 437 503 34,000  Level Washington Center
Sun 08:39:44 AM 36.9394 -79.1597 217° Southwest 442 509 34,000  Level Washington Center
Sun 08:40:45 AM 36.8450 -79.2489 217° Southwest 442 509 34,000  Level Washington Center
Sun 08:43:07 AM 36.5989 -79.4722 216° Southwest 438 504 34,000  Level Atlanta Center
Sun 08:44:07 AM 36.5019 -79.5578 215° Southwest 438 504 34,000  Level Atlanta Center
Sun 08:45:07 AM 36.4072 -79.6483 218° Southwest 438 504 34,000  Level Atlanta Center
Sun 08:46:07 AM 36.3183 -79.7278 216° Southwest 438 504 34,000  Level Atlanta Center
Sun 08:47:07 AM 36.2211 -79.8128 215° Southwest 438 504 34,000  Level Atlanta Center
Sun 08:48:07 AM 36.1242 -79.9000 216° Southwest 438 504 34,000  Level Atlanta Center
Sun 08:49:07 AM 36.0144 -79.9878 213° Southwest 438 504 34,000  Level Atlanta Center
Sun 08:50:07 AM 35.9056 -80.0419 202° Southwest 427 491 34,000  Level Atlanta Center
Sun 08:51:07 AM 35.7947 -80.1011 203° Southwest 427 491 34,000  Level Atlanta Center
Sun 08:52:07 AM 35.6861 -80.1550 202° Southwest 432 497 34,000  Level Atlanta Center
Sun 08:53:07 AM 35.5750 -80.2114 202° Southwest 432 497 34,000  Level Atlanta Center
Sun 08:54:07 AM 35.4706 -80.2672 204° Southwest 432 497 34,000  Level Atlanta Center
Sun 08:55:07 AM 35.3594 -80.3208 201° Southwest 427 491 34,000  Level Atlanta Center
Sun 08:56:07 AM 35.2483 -80.3739 201° Southwest 433 498 34,000  Level Atlanta Center
Sun 08:58:25 AM 35.0069 -80.4950 202° Southwest 424 488 34,000  Level Jacksonville Center
Sun 08:59:25 AM 34.8972 -80.5489 202° Southwest 429 494 34,000  Level Jacksonville Center
Sun 09:00:25 AM 34.7961 -80.6047 204° Southwest 429 494 34,000  Level Jacksonville Center
Sun 09:01:25 AM 34.6867 -80.6581 202° Southwest 424 488 34,000  Level Jacksonville Center
Sun 09:02:25 AM 34.5625 -80.7117 200° South 432 497 34,000  Level Jacksonville Center
Sun 09:03:25 AM 34.4528 -80.7675 203° Southwest 432 497 34,000  Level Jacksonville Center
Sun 09:04:25 AM 34.3453 -80.8203 202° Southwest 420 483 34,000  Level Jacksonville Center
Sun 09:05:25 AM 34.2542 -80.8678 203° Southwest 415 478 34,000  Level Jacksonville Center
Sun 09:06:25 AM 34.1444 -80.9206 202° Southwest 410 472 34,000  Level Jacksonville Center
Sun 09:07:26 AM 34.0367 -80.9731 202° Southwest 420 483 34,000  Level Jacksonville Center
Sun 09:08:25 AM 33.9289 -81.0228 201° Southwest 420 483 34,000  Level Jacksonville Center
Sun 09:09:25 AM 33.8064 -81.0606 194° South 426 490 34,000  Level Jacksonville Center
Sun 09:10:26 AM 33.6897 -81.0703 184° South 416 479 34,000  Level Jacksonville Center
Sun 09:11:25 AM 33.5792 -81.0728 181° South 411 473 34,000  Level Jacksonville Center
Sun 09:12:25 AM 33.4661 -81.0600 175° South 400 460 34,000  Level Jacksonville Center
Sun 09:13:25 AM 33.3575 -81.0450 173° South 405 466 34,000  Level Jacksonville Center
Sun 09:14:26 AM 33.2467 -81.0297 173° South 405 466 34,000  Level Jacksonville Center
Sun 09:15:25 AM 33.1358 -81.0172 175° South 405 466 34,000  Level Jacksonville Center
Sun 09:16:25 AM 33.0250 -80.9997 172° South 405 466 34,000  Level Jacksonville Center
Sun 09:17:25 AM 32.9119 -80.9872 175° South 405 466 34,000  Level Jacksonville Center
Sun 09:18:25 AM 32.8011 -80.9722 174° South 405 466 34,000  Level Jacksonville Center
Sun 09:19:26 AM 32.6903 -80.9572 174° South 405 466 34,000  Level Jacksonville Center
Sun 09:20:25 AM 32.5778 -80.9622 182° South 403 464 34,000  Level Jacksonville Center
Sun 09:21:25 AM 32.4631 -80.9744 185° South 403 464 34,000  Level Jacksonville Center
Sun 09:22:26 AM 32.3594 -81.0233 202° Southwest 407 468 34,000  Level Jacksonville Center
Sun 09:23:25 AM 32.2561 -81.1042 213° Southwest 436 502 34,000  Level Jacksonville Center
Sun 09:24:25 AM 32.1700 -81.2114 227° Southwest 450 518 34,000  Level Jacksonville Center
Sun 09:25:26 AM 32.0814 -81.3061 222° Southwest 441 507 34,000  Level Jacksonville Center
Sun 09:26:25 AM 31.9908 -81.4033 222° Southwest 436 502 34,000  Level Jacksonville Center
Sun 09:27:25 AM 31.9144 -81.4950 226° Southwest 440 506 34,000  Level Jacksonville Center
Sun 09:28:25 AM 31.8028 -81.5775 212° Southwest 440 506 34,000  Level Jacksonville Center
Sun 09:29:25 AM 31.7136 -81.6447 213° Southwest 440 506 34,000  Level Jacksonville Center
Sun 09:30:25 AM 31.6017 -81.7267 212° Southwest 435 501 34,000  Level Jacksonville Center
Sun 09:31:26 AM 31.4894 -81.7767 201° Southwest 424 488 34,000  Level Jacksonville Center
Sun 09:32:25 AM 31.3872 -81.8119 196° South 418 481 34,000  Level Jacksonville Center
Sun 09:33:25 AM 31.2625 -81.8547 196° South 423 487 34,000  Level Jacksonville Center
Sun 09:34:26 AM 31.1500 -81.8947 197° South 423 487 34,000  Level Jacksonville Center
Sun 09:35:25 AM 31.0375 -81.9347 197° South 423 487 34,000  Level Jacksonville Center
Sun 09:36:25 AM 30.9231 -81.9747 197° South 423 487 34,000  Level Jacksonville Center
Sun 09:37:26 AM 30.8064 -82.0144 196° South 423 487 34,000  Level Jacksonville Center
Sun 09:38:26 AM 30.6939 -82.0542 197° South 428 493 34,000  Level Jacksonville Center
Sun 09:39:25 AM 30.5792 -82.0939 197° South 428 493 34,000  Level Jacksonville Center
Sun 09:40:25 AM 30.4750 -82.1214 193° South 428 493 34,000  Level Jacksonville Center
Sun 09:41:25 AM 30.3500 -82.1656 197° South 433 498 34,000 -496 Level Jacksonville Center
Sun 09:42:26 AM 30.2375 -82.2050 197° South 433 498 33,000 -1,240 Descending Jacksonville Center
Sun 09:43:26 AM 30.1206 -82.2225 187° South 433 498 31,500 -1,462 Descending Jacksonville Center
Sun 09:44:25 AM 30.0119 -82.2017 171° South 432 497 30,100 -1,450 Descending Jacksonville Center
Sun 09:45:26 AM 29.8950 -82.1761 169° South 432 497 28,600 -1,587 Descending Jacksonville Center
Sun 09:46:26 AM 29.7778 -82.1483 168° South 427 491 26,900 -1,950 Descending Jacksonville Center
Sun 09:47:26 AM 29.6606 -82.0992 160° South 421 484 24,700 -2,118 Descending Jacksonville Center
Sun 09:48:25 AM 29.5561 -82.0522 159° South 410 472 22,700 -1,866 Descending Jacksonville Center
Sun 09:49:25 AM 29.4661 -82.0194 162° South 396 456 21,000 -1,800 Descending Jacksonville Center
Sun 09:50:25 AM 29.3675 -81.9775 160° South 384 442 19,100 -1,850 Descending Jacksonville Center
Sun 09:51:25 AM 29.2714 -81.9403 161° South 378 435 17,300 -1,835 Descending Jacksonville Center
Sun 09:52:26 AM 29.1667 -81.8914 158° South 372 428 15,400 -2,000 Descending Jacksonville Center
Sun 09:53:25 AM 29.0767 -81.8567 161° South 365 420 13,300 -1,765 Descending Jacksonville Center
Sun 09:54:25 AM 28.9886 -81.8197 160° South 347 399 11,900 -700 Descending Jacksonville Center
Sun 09:55:25 AM 28.9381 -81.7561 132° Southeast 315 362 11,900 -893 Level Jacksonville Center
Sun 09:56:26 AM 28.8869 -81.6736 125° Southeast 296 341 10,100 -1,500 Descending Jacksonville Center
Sun 09:57:25 AM 28.8469 -81.6197 130° Southeast 291 335 8,900 -756 Descending Jacksonville Center
Sun 09:58:25 AM 28.7961 -81.5422 127° Southeast 291 335 8,600 -500 Descending Jacksonville Center
Sun 09:59:25 AM 28.7558 -81.4811 127° Southeast 270 311 7,900 -950 Descending Jacksonville Center
Sun 10:00:25 AM 28.7175 -81.4250 128° Southeast 245 282 6,700 -1,350 Descending Jacksonville Center
Sun 10:01:25 AM 28.6792 -81.3639 126° Southeast 233 268 5,200 -1,459 Descending Jacksonville Center
Sun 10:02:53 AM 28.6000 -81.3333 161° South 177 204 3,100 -1,257 Descending Orlando TRACON
Sun 10:03:53 AM 28.5500 -81.3333 180° South 163 188 2,100 -1,000 Descending Orlando TRACON

Login

Don't have an account? Register now (free) for customized features, flight alerts, and more!